sensor_id;sensor_type;location;lat;lon;timestamp;P1;durP1;ratioP1;P2;durP2;ratioP2
48911;SDS011;34722;52.108;5.044;2023-04-29T00:01:17;80.80;;;34.90;;
48911;SDS011;34722;52.108;5.044;2023-04-29T00:03:42;78.35;;;37.38;;
48911;SDS011;34722;52.108;5.044;2023-04-29T00:06:08;70.57;;;35.67;;
48911;SDS011;34722;52.108;5.044;2023-04-29T00:08:35;78.95;;;35.65;;
48911;SDS011;34722;52.108;5.044;2023-04-29T00:11:01;80.72;;;35.17;;
48911;SDS011;34722;52.108;5.044;2023-04-29T00:13:27;82.97;;;38.35;;
48911;SDS011;34722;52.108;5.044;2023-04-29T00:15:52;70.97;;;34.67;;
48911;SDS011;34722;52.108;5.044;2023-04-29T00:18:18;70.63;;;33.38;;
48911;SDS011;34722;52.108;5.044;2023-04-29T00:20:44;76.53;;;36.00;;
48911;SDS011;34722;52.108;5.044;2023-04-29T00:23:10;71.88;;;34.80;;
48911;SDS011;34722;52.108;5.044;2023-04-29T00:25:35;71.65;;;35.00;;
48911;SDS011;34722;52.108;5.044;2023-04-29T00:28:03;76.13;;;36.53;;
48911;SDS011;34722;52.108;5.044;2023-04-29T00:30:29;81.57;;;36.97;;
48911;SDS011;34722;52.108;5.044;2023-04-29T00:32:56;82.28;;;38.45;;
48911;SDS011;34722;52.108;5.044;2023-04-29T00:35:22;77.10;;;35.15;;
48911;SDS011;34722;52.108;5.044;2023-04-29T00:37:47;68.65;;;34.10;;
48911;SDS011;34722;52.108;5.044;2023-04-29T00:40:13;79.15;;;37.17;;
48911;SDS011;34722;52.108;5.044;2023-04-29T00:42:39;75.03;;;33.65;;
48911;SDS011;34722;52.108;5.044;2023-04-29T00:45:06;82.70;;;36.47;;
48911;SDS011;34722;52.108;5.044;2023-04-29T00:47:35;73.32;;;35.67;;
48911;SDS011;34722;52.108;5.044;2023-04-29T00:50:02;81.68;;;37.00;;
48911;SDS011;34722;52.108;5.044;2023-04-29T00:52:32;85.47;;;36.28;;
48911;SDS011;34722;52.108;5.044;2023-04-29T00:54:59;83.32;;;36.20;;
48911;SDS011;34722;52.108;5.044;2023-04-29T00:57:25;80.50;;;37.65;;
48911;SDS011;34722;52.108;5.044;2023-04-29T00:59:57;79.53;;;36.03;;
48911;SDS011;34722;52.108;5.044;2023-04-29T01:02:23;73.32;;;35.38;;
48911;SDS011;34722;52.108;5.044;2023-04-29T01:04:50;80.63;;;35.45;;
48911;SDS011;34722;52.108;5.044;2023-04-29T01:07:17;77.25;;;36.05;;
48911;SDS011;34722;52.108;5.044;2023-04-29T01:15:43;68.68;;;34.28;;
48911;SDS011;34722;52.108;5.044;2023-04-29T01:18:32;77.25;;;35.22;;
48911;SDS011;34722;52.108;5.044;2023-04-29T01:21:03;74.13;;;33.60;;
48911;SDS011;34722;52.108;5.044;2023-04-29T01:23:29;75.47;;;33.70;;
48911;SDS011;34722;52.108;5.044;2023-04-29T01:25:58;60.85;;;28.95;;
48911;SDS011;34722;52.108;5.044;2023-04-29T01:31:18;45.33;;;21.27;;
48911;SDS011;34722;52.108;5.044;2023-04-29T01:39:49;43.13;;;22.02;;
48911;SDS011;34722;52.108;5.044;2023-04-29T01:42:25;40.08;;;21.10;;
48911;SDS011;34722;52.108;5.044;2023-04-29T01:45:09;42.22;;;22.60;;
48911;SDS011;34722;52.108;5.044;2023-04-29T01:47:40;44.08;;;22.40;;
48911;SDS011;34722;52.108;5.044;2023-04-29T01:50:07;42.45;;;24.10;;
48911;SDS011;34722;52.108;5.044;2023-04-29T01:52:36;42.95;;;20.75;;
48911;SDS011;34722;52.108;5.044;2023-04-29T01:55:01;38.50;;;21.02;;
48911;SDS011;34722;52.108;5.044;2023-04-29T01:57:28;41.58;;;23.25;;
48911;SDS011;34722;52.108;5.044;2023-04-29T02:00:03;33.75;;;18.52;;
48911;SDS011;34722;52.108;5.044;2023-04-29T02:02:29;34.67;;;17.48;;
48911;SDS011;34722;52.108;5.044;2023-04-29T02:04:55;39.55;;;18.23;;
48911;SDS011;34722;52.108;5.044;2023-04-29T02:07:21;40.78;;;21.88;;
48911;SDS011;34722;52.108;5.044;2023-04-29T02:09:46;41.03;;;20.13;;
48911;SDS011;34722;52.108;5.044;2023-04-29T02:12:12;37.50;;;19.38;;
48911;SDS011;34722;52.108;5.044;2023-04-29T02:14:38;41.55;;;19.17;;
48911;SDS011;34722;52.108;5.044;2023-04-29T02:17:03;34.45;;;19.25;;
48911;SDS011;34722;52.108;5.044;2023-04-29T02:19:29;34.08;;;19.77;;
48911;SDS011;34722;52.108;5.044;2023-04-29T02:21:58;40.30;;;20.63;;
48911;SDS011;34722;52.108;5.044;2023-04-29T02:24:37;37.05;;;19.90;;
48911;SDS011;34722;52.108;5.044;2023-04-29T02:27:13;38.45;;;20.83;;
48911;SDS011;34722;52.108;5.044;2023-04-29T02:29:39;37.92;;;21.17;;
48911;SDS011;34722;52.108;5.044;2023-04-29T02:32:05;43.40;;;20.88;;
48911;SDS011;34722;52.108;5.044;2023-04-29T02:34:30;41.63;;;22.90;;
48911;SDS011;34722;52.108;5.044;2023-04-29T02:36:56;43.08;;;24.50;;
48911;SDS011;34722;52.108;5.044;2023-04-29T02:39:25;48.13;;;25.88;;
48911;SDS011;34722;52.108;5.044;2023-04-29T02:47:49;49.65;;;25.00;;
48911;SDS011;34722;52.108;5.044;2023-04-29T02:50:15;46.40;;;23.33;;
48911;SDS011;34722;52.108;5.044;2023-04-29T02:55:37;50.25;;;24.75;;
48911;SDS011;34722;52.108;5.044;2023-04-29T02:58:03;43.80;;;22.30;;
48911;SDS011;34722;52.108;5.044;2023-04-29T03:00:32;47.22;;;22.92;;
48911;SDS011;34722;52.108;5.044;2023-04-29T03:02:57;41.67;;;22.40;;
48911;SDS011;34722;52.108;5.044;2023-04-29T03:05:23;43.67;;;23.02;;
48911;SDS011;34722;52.108;5.044;2023-04-29T03:07:49;45.42;;;24.15;;
48911;SDS011;34722;52.108;5.044;2023-04-29T03:16:32;41.63;;;21.83;;
48911;SDS011;34722;52.108;5.044;2023-04-29T03:18:58;39.25;;;22.50;;
48911;SDS011;34722;52.108;5.044;2023-04-29T03:21:27;39.38;;;21.67;;
48911;SDS011;34722;52.108;5.044;2023-04-29T03:23:53;41.38;;;21.60;;
48911;SDS011;34722;52.108;5.044;2023-04-29T03:26:20;43.05;;;23.15;;
48911;SDS011;34722;52.108;5.044;2023-04-29T03:29:00;45.63;;;23.10;;
48911;SDS011;34722;52.108;5.044;2023-04-29T03:31:32;41.72;;;23.48;;
48911;SDS011;34722;52.108;5.044;2023-04-29T03:33:58;38.17;;;21.77;;
48911;SDS011;34722;52.108;5.044;2023-04-29T03:36:39;48.75;;;22.98;;
48911;SDS011;34722;52.108;5.044;2023-04-29T03:39:05;42.83;;;22.10;;
48911;SDS011;34722;52.108;5.044;2023-04-29T03:41:48;42.20;;;22.08;;
48911;SDS011;34722;52.108;5.044;2023-04-29T03:44:26;43.60;;;22.13;;
48911;SDS011;34722;52.108;5.044;2023-04-29T03:46:55;38.03;;;20.15;;
48911;SDS011;34722;52.108;5.044;2023-04-29T03:49:20;47.65;;;23.65;;
48911;SDS011;34722;52.108;5.044;2023-04-29T03:51:58;42.08;;;22.30;;
48911;SDS011;34722;52.108;5.044;2023-04-29T03:57:34;41.97;;;21.80;;
48911;SDS011;34722;52.108;5.044;2023-04-29T04:00:10;50.38;;;22.20;;
48911;SDS011;34722;52.108;5.044;2023-04-29T04:02:36;39.47;;;21.65;;
48911;SDS011;34722;52.108;5.044;2023-04-29T04:05:11;46.70;;;23.92;;
48911;SDS011;34722;52.108;5.044;2023-04-29T04:07:37;44.55;;;22.33;;
48911;SDS011;34722;52.108;5.044;2023-04-29T04:10:05;44.90;;;23.63;;
48911;SDS011;34722;52.108;5.044;2023-04-29T04:12:31;40.30;;;22.33;;
48911;SDS011;34722;52.108;5.044;2023-04-29T04:14:57;41.42;;;21.15;;
48911;SDS011;34722;52.108;5.044;2023-04-29T04:17:23;42.72;;;22.65;;
48911;SDS011;34722;52.108;5.044;2023-04-29T04:19:48;46.97;;;24.50;;
48911;SDS011;34722;52.108;5.044;2023-04-29T04:22:14;41.67;;;22.80;;
48911;SDS011;34722;52.108;5.044;2023-04-29T04:27:28;42.83;;;22.85;;
48911;SDS011;34722;52.108;5.044;2023-04-29T04:32:43;43.88;;;25.27;;
48911;SDS011;34722;52.108;5.044;2023-04-29T04:35:21;44.08;;;23.13;;
48911;SDS011;34722;52.108;5.044;2023-04-29T04:41:12;37.05;;;21.60;;
48911;SDS011;34722;52.108;5.044;2023-04-29T04:46:29;39.83;;;24.45;;
48911;SDS011;34722;52.108;5.044;2023-04-29T04:48:55;52.38;;;23.85;;
48911;SDS011;34722;52.108;5.044;2023-04-29T04:51:20;42.00;;;23.30;;
48911;SDS011;34722;52.108;5.044;2023-04-29T04:53:46;45.95;;;24.58;;
48911;SDS011;34722;52.108;5.044;2023-04-29T04:58:56;41.05;;;22.75;;
48911;SDS011;34722;52.108;5.044;2023-04-29T05:01:22;40.40;;;21.77;;
48911;SDS011;34722;52.108;5.044;2023-04-29T05:03:47;42.20;;;23.05;;
48911;SDS011;34722;52.108;5.044;2023-04-29T05:06:22;46.70;;;23.40;;
48911;SDS011;34722;52.108;5.044;2023-04-29T05:09:00;43.63;;;23.02;;
48911;SDS011;34722;52.108;5.044;2023-04-29T05:13:57;40.47;;;23.23;;
48911;SDS011;34722;52.108;5.044;2023-04-29T05:21:33;42.50;;;23.48;;
48911;SDS011;34722;52.108;5.044;2023-04-29T05:23:59;42.00;;;22.05;;
48911;SDS011;34722;52.108;5.044;2023-04-29T05:26:25;45.78;;;23.25;;
48911;SDS011;34722;52.108;5.044;2023-04-29T05:29:06;42.10;;;23.30;;
48911;SDS011;34722;52.108;5.044;2023-04-29T05:31:31;51.95;;;23.65;;
48911;SDS011;34722;52.108;5.044;2023-04-29T05:34:09;44.40;;;22.40;;
48911;SDS011;34722;52.108;5.044;2023-04-29T05:39:26;42.75;;;21.33;;
48911;SDS011;34722;52.108;5.044;2023-04-29T05:41:51;40.28;;;21.45;;
48911;SDS011;34722;52.108;5.044;2023-04-29T05:44:17;41.92;;;21.85;;
48911;SDS011;34722;52.108;5.044;2023-04-29T05:46:42;39.95;;;19.80;;
48911;SDS011;34722;52.108;5.044;2023-04-29T05:49:14;37.20;;;19.48;;
48911;SDS011;34722;52.108;5.044;2023-04-29T05:51:40;49.97;;;21.05;;
48911;SDS011;34722;52.108;5.044;2023-04-29T05:54:06;39.88;;;20.30;;
48911;SDS011;34722;52.108;5.044;2023-04-29T05:56:31;37.38;;;20.60;;
48911;SDS011;34722;52.108;5.044;2023-04-29T05:58:57;34.90;;;19.45;;
48911;SDS011;34722;52.108;5.044;2023-04-29T06:01:26;33.65;;;18.92;;
48911;SDS011;34722;52.108;5.044;2023-04-29T06:06:36;32.83;;;18.98;;
48911;SDS011;34722;52.108;5.044;2023-04-29T06:09:02;33.33;;;18.02;;
48911;SDS011;34722;52.108;5.044;2023-04-29T06:11:28;31.02;;;17.30;;
48911;SDS011;34722;52.108;5.044;2023-04-29T06:13:54;30.55;;;17.98;;
48911;SDS011;34722;52.108;5.044;2023-04-29T06:16:29;33.50;;;17.95;;
48911;SDS011;34722;52.108;5.044;2023-04-29T06:18:54;31.83;;;19.05;;
48911;SDS011;34722;52.108;5.044;2023-04-29T06:21:20;34.97;;;18.25;;
48911;SDS011;34722;52.108;5.044;2023-04-29T06:23:55;34.17;;;18.77;;
48911;SDS011;34722;52.108;5.044;2023-04-29T06:26:21;35.75;;;19.77;;
48911;SDS011;34722;52.108;5.044;2023-04-29T06:28:47;36.00;;;18.48;;
48911;SDS011;34722;52.108;5.044;2023-04-29T06:31:16;33.47;;;18.70;;
48911;SDS011;34722;52.108;5.044;2023-04-29T06:33:42;31.80;;;17.52;;
48911;SDS011;34722;52.108;5.044;2023-04-29T06:36:08;29.10;;;17.95;;
48911;SDS011;34722;52.108;5.044;2023-04-29T06:38:33;31.75;;;17.50;;
48911;SDS011;34722;52.108;5.044;2023-04-29T06:40:59;25.73;;;16.27;;
48911;SDS011;34722;52.108;5.044;2023-04-29T06:43:28;22.33;;;14.68;;
48911;SDS011;34722;52.108;5.044;2023-04-29T06:45:57;30.15;;;15.25;;
48911;SDS011;34722;52.108;5.044;2023-04-29T06:48:29;22.63;;;14.20;;
48911;SDS011;34722;52.108;5.044;2023-04-29T06:51:03;25.08;;;15.13;;
48911;SDS011;34722;52.108;5.044;2023-04-29T06:53:32;29.05;;;15.73;;
48911;SDS011;34722;52.108;5.044;2023-04-29T06:55:58;24.95;;;15.27;;
48911;SDS011;34722;52.108;5.044;2023-04-29T06:58:24;26.95;;;15.90;;
48911;SDS011;34722;52.108;5.044;2023-04-29T07:06:09;23.40;;;15.35;;
48911;SDS011;34722;52.108;5.044;2023-04-29T07:08:35;23.17;;;15.15;;
48911;SDS011;34722;52.108;5.044;2023-04-29T07:11:01;19.55;;;14.13;;
48911;SDS011;34722;52.108;5.044;2023-04-29T07:13:31;26.23;;;14.85;;
48911;SDS011;34722;52.108;5.044;2023-04-29T07:15:57;26.23;;;14.75;;
48911;SDS011;34722;52.108;5.044;2023-04-29T07:18:23;23.13;;;14.35;;
48911;SDS011;34722;52.108;5.044;2023-04-29T07:20:59;21.05;;;13.82;;
48911;SDS011;34722;52.108;5.044;2023-04-29T07:23:45;18.55;;;14.00;;
48911;SDS011;34722;52.108;5.044;2023-04-29T07:26:16;23.33;;;13.32;;
48911;SDS011;34722;52.108;5.044;2023-04-29T07:28:42;26.48;;;14.38;;
48911;SDS011;34722;52.108;5.044;2023-04-29T07:31:09;19.30;;;12.98;;
48911;SDS011;34722;52.108;5.044;2023-04-29T07:33:36;21.30;;;13.60;;
48911;SDS011;34722;52.108;5.044;2023-04-29T07:36:02;21.48;;;13.98;;
48911;SDS011;34722;52.108;5.044;2023-04-29T07:38:28;20.13;;;13.70;;
48911;SDS011;34722;52.108;5.044;2023-04-29T07:40:54;16.88;;;13.82;;
48911;SDS011;34722;52.108;5.044;2023-04-29T07:43:20;18.17;;;13.70;;
48911;SDS011;34722;52.108;5.044;2023-04-29T07:45:46;22.55;;;14.13;;
48911;SDS011;34722;52.108;5.044;2023-04-29T07:48:15;20.73;;;14.05;;
48911;SDS011;34722;52.108;5.044;2023-04-29T07:50:40;18.75;;;13.25;;
48911;SDS011;34722;52.108;5.044;2023-04-29T07:53:09;18.80;;;13.52;;
48911;SDS011;34722;52.108;5.044;2023-04-29T07:55:36;19.45;;;13.13;;
48911;SDS011;34722;52.108;5.044;2023-04-29T07:58:02;24.42;;;13.95;;
48911;SDS011;34722;52.108;5.044;2023-04-29T08:00:28;19.33;;;13.75;;
48911;SDS011;34722;52.108;5.044;2023-04-29T08:02:54;18.90;;;14.30;;
48911;SDS011;34722;52.108;5.044;2023-04-29T08:05:21;16.73;;;13.57;;
48911;SDS011;34722;52.108;5.044;2023-04-29T08:07:47;15.02;;;13.10;;
48911;SDS011;34722;52.108;5.044;2023-04-29T08:10:14;16.55;;;14.02;;
48911;SDS011;34722;52.108;5.044;2023-04-29T08:12:40;18.63;;;14.55;;
48911;SDS011;34722;52.108;5.044;2023-04-29T08:15:12;20.52;;;14.45;;
48911;SDS011;34722;52.108;5.044;2023-04-29T08:17:38;20.10;;;15.48;;
48911;SDS011;34722;52.108;5.044;2023-04-29T08:20:05;20.90;;;14.95;;
48911;SDS011;34722;52.108;5.044;2023-04-29T08:22:32;18.23;;;14.00;;
48911;SDS011;34722;52.108;5.044;2023-04-29T08:24:58;15.38;;;13.70;;
48911;SDS011;34722;52.108;5.044;2023-04-29T08:27:30;17.63;;;13.57;;
48911;SDS011;34722;52.108;5.044;2023-04-29T08:29:55;18.25;;;13.45;;
48911;SDS011;34722;52.108;5.044;2023-04-29T08:32:22;19.05;;;14.80;;
48911;SDS011;34722;52.108;5.044;2023-04-29T08:34:48;19.23;;;14.52;;
48911;SDS011;34722;52.108;5.044;2023-04-29T08:37:13;21.55;;;14.98;;
48911;SDS011;34722;52.108;5.044;2023-04-29T08:39:42;17.95;;;13.57;;
48911;SDS011;34722;52.108;5.044;2023-04-29T08:42:10;20.48;;;14.20;;
48911;SDS011;34722;52.108;5.044;2023-04-29T08:44:36;15.05;;;13.25;;
48911;SDS011;34722;52.108;5.044;2023-04-29T08:47:04;16.13;;;12.05;;
48911;SDS011;34722;52.108;5.044;2023-04-29T08:49:31;18.00;;;13.65;;
48911;SDS011;34722;52.108;5.044;2023-04-29T08:51:57;19.50;;;13.30;;
48911;SDS011;34722;52.108;5.044;2023-04-29T08:54:23;16.70;;;12.95;;
48911;SDS011;34722;52.108;5.044;2023-04-29T08:56:51;17.88;;;12.93;;
48911;SDS011;34722;52.108;5.044;2023-04-29T08:59:17;15.77;;;12.85;;
48911;SDS011;34722;52.108;5.044;2023-04-29T09:01:45;15.70;;;12.68;;
48911;SDS011;34722;52.108;5.044;2023-04-29T09:04:20;14.70;;;11.82;;
48911;SDS011;34722;52.108;5.044;2023-04-29T09:06:51;12.35;;;10.25;;
48911;SDS011;34722;52.108;5.044;2023-04-29T09:09:20;15.13;;;10.68;;
48911;SDS011;34722;52.108;5.044;2023-04-29T09:11:46;12.10;;;10.13;;
48911;SDS011;34722;52.108;5.044;2023-04-29T09:14:24;15.63;;;11.65;;
48911;SDS011;34722;52.108;5.044;2023-04-29T09:16:58;12.68;;;10.35;;
48911;SDS011;34722;52.108;5.044;2023-04-29T09:19:34;12.15;;;9.88;;
48911;SDS011;34722;52.108;5.044;2023-04-29T09:22:01;11.88;;;10.50;;
48911;SDS011;34722;52.108;5.044;2023-04-29T09:24:32;13.45;;;10.75;;
48911;SDS011;34722;52.108;5.044;2023-04-29T09:26:58;11.15;;;9.50;;
48911;SDS011;34722;52.108;5.044;2023-04-29T14:20:21;2.75;;;2.08;;
48911;SDS011;34722;52.108;5.044;2023-04-29T14:22:47;4.18;;;2.00;;
48911;SDS011;34722;52.108;5.044;2023-04-29T14:25:12;4.15;;;2.45;;
48911;SDS011;34722;52.108;5.044;2023-04-29T14:27:40;7.82;;;2.50;;
48911;SDS011;34722;52.108;5.044;2023-04-29T14:30:10;4.00;;;2.95;;
48911;SDS011;34722;52.108;5.044;2023-04-29T14:32:39;3.10;;;2.50;;
48911;SDS011;34722;52.108;5.044;2023-04-29T14:35:04;3.17;;;2.45;;
48911;SDS011;34722;52.108;5.044;2023-04-29T14:37:31;2.60;;;2.40;;
48911;SDS011;34722;52.108;5.044;2023-04-29T14:39:59;3.22;;;2.80;;
48911;SDS011;34722;52.108;5.044;2023-04-29T14:42:48;3.03;;;2.10;;
48911;SDS011;34722;52.108;5.044;2023-04-29T14:45:29;2.92;;;2.67;;
48911;SDS011;34722;52.108;5.044;2023-04-29T14:48:10;2.13;;;1.98;;
48911;SDS011;34722;52.108;5.044;2023-04-29T14:54:00;7.82;;;3.60;;
48911;SDS011;34722;52.108;5.044;2023-04-29T14:56:35;8.13;;;3.30;;
48911;SDS011;34722;52.108;5.044;2023-04-29T14:59:02;7.75;;;3.00;;
48911;SDS011;34722;52.108;5.044;2023-04-29T15:01:39;4.07;;;2.63;;
48911;SDS011;34722;52.108;5.044;2023-04-29T15:04:05;5.85;;;2.65;;
48911;SDS011;34722;52.108;5.044;2023-04-29T15:06:34;6.57;;;2.75;;
48911;SDS011;34722;52.108;5.044;2023-04-29T15:09:00;4.05;;;2.38;;
48911;SDS011;34722;52.108;5.044;2023-04-29T15:11:26;4.97;;;2.80;;
48911;SDS011;34722;52.108;5.044;2023-04-29T15:13:52;6.57;;;4.07;;
48911;SDS011;34722;52.108;5.044;2023-04-29T15:16:17;3.75;;;2.55;;
48911;SDS011;34722;52.108;5.044;2023-04-29T15:18:43;6.00;;;2.92;;
48911;SDS011;34722;52.108;5.044;2023-04-29T15:21:09;3.38;;;2.78;;
48911;SDS011;34722;52.108;5.044;2023-04-29T15:23:35;12.02;;;3.00;;
48911;SDS011;34722;52.108;5.044;2023-04-29T15:26:01;2.95;;;2.75;;
48911;SDS011;34722;52.108;5.044;2023-04-29T15:28:27;3.13;;;2.83;;
48911;SDS011;34722;52.108;5.044;2023-04-29T15:30:52;5.15;;;2.70;;
48911;SDS011;34722;52.108;5.044;2023-04-29T15:33:18;4.35;;;3.03;;
48911;SDS011;34722;52.108;5.044;2023-04-29T15:35:44;6.40;;;3.33;;
48911;SDS011;34722;52.108;5.044;2023-04-29T15:38:10;4.20;;;3.28;;
48911;SDS011;34722;52.108;5.044;2023-04-29T15:40:36;5.65;;;3.00;;
48911;SDS011;34722;52.108;5.044;2023-04-29T15:43:02;4.13;;;2.90;;
48911;SDS011;34722;52.108;5.044;2023-04-29T15:45:27;4.07;;;2.78;;
48911;SDS011;34722;52.108;5.044;2023-04-29T15:48:27;7.05;;;2.30;;
48911;SDS011;34722;52.108;5.044;2023-04-29T15:50:53;3.25;;;1.90;;
48911;SDS011;34722;52.108;5.044;2023-04-29T15:53:19;2.45;;;2.13;;
48911;SDS011;34722;52.108;5.044;2023-04-29T15:55:44;2.70;;;2.05;;
48911;SDS011;34722;52.108;5.044;2023-04-29T15:58:10;4.38;;;2.70;;
48911;SDS011;34722;52.108;5.044;2023-04-29T16:00:35;3.58;;;2.83;;
48911;SDS011;34722;52.108;5.044;2023-04-29T16:03:02;6.28;;;3.05;;
48911;SDS011;34722;52.108;5.044;2023-04-29T16:05:28;2.90;;;2.40;;
48911;SDS011;34722;52.108;5.044;2023-04-29T16:07:55;4.75;;;2.58;;
48911;SDS011;34722;52.108;5.044;2023-04-29T16:10:21;13.23;;;2.65;;
48911;SDS011;34722;52.108;5.044;2023-04-29T16:12:47;3.65;;;2.20;;
48911;SDS011;34722;52.108;5.044;2023-04-29T16:15:13;2.65;;;1.80;;
48911;SDS011;34722;52.108;5.044;2023-04-29T16:17:39;3.80;;;2.33;;
48911;SDS011;34722;52.108;5.044;2023-04-29T16:20:04;3.13;;;2.47;;
48911;SDS011;34722;52.108;5.044;2023-04-29T16:22:31;3.45;;;2.90;;
48911;SDS011;34722;52.108;5.044;2023-04-29T16:24:57;4.22;;;3.20;;
48911;SDS011;34722;52.108;5.044;2023-04-29T16:27:22;5.57;;;2.75;;
48911;SDS011;34722;52.108;5.044;2023-04-29T16:29:48;3.13;;;2.53;;
48911;SDS011;34722;52.108;5.044;2023-04-29T16:32:14;4.07;;;3.42;;
48911;SDS011;34722;52.108;5.044;2023-04-29T16:34:39;6.72;;;3.90;;
48911;SDS011;34722;52.108;5.044;2023-04-29T16:37:05;5.25;;;2.58;;
48911;SDS011;34722;52.108;5.044;2023-04-29T16:39:36;4.30;;;3.90;;
48911;SDS011;34722;52.108;5.044;2023-04-29T16:42:02;5.47;;;2.53;;
48911;SDS011;34722;52.108;5.044;2023-04-29T16:44:28;4.22;;;3.25;;
48911;SDS011;34722;52.108;5.044;2023-04-29T16:46:53;5.53;;;3.28;;
48911;SDS011;34722;52.108;5.044;2023-04-29T16:49:22;5.55;;;3.53;;
48911;SDS011;34722;52.108;5.044;2023-04-29T16:51:50;6.28;;;3.90;;
48911;SDS011;34722;52.108;5.044;2023-04-29T16:54:16;5.28;;;3.80;;
48911;SDS011;34722;52.108;5.044;2023-04-29T16:56:50;5.43;;;3.10;;
48911;SDS011;34722;52.108;5.044;2023-04-29T16:59:32;7.82;;;3.88;;
48911;SDS011;34722;52.108;5.044;2023-04-29T17:01:58;6.07;;;3.97;;
48911;SDS011;34722;52.108;5.044;2023-04-29T17:04:27;7.28;;;3.47;;
48911;SDS011;34722;52.108;5.044;2023-04-29T17:06:54;10.20;;;4.50;;
48911;SDS011;34722;52.108;5.044;2023-04-29T17:09:20;3.90;;;3.45;;
48911;SDS011;34722;52.108;5.044;2023-04-29T17:11:50;4.82;;;3.80;;
48911;SDS011;34722;52.108;5.044;2023-04-29T17:14:16;7.30;;;3.30;;
48911;SDS011;34722;52.108;5.044;2023-04-29T17:16:41;4.07;;;2.97;;
48911;SDS011;34722;52.108;5.044;2023-04-29T17:19:07;5.50;;;3.78;;
48911;SDS011;34722;52.108;5.044;2023-04-29T17:21:33;4.63;;;2.65;;
48911;SDS011;34722;52.108;5.044;2023-04-29T17:23:59;4.88;;;3.05;;
48911;SDS011;34722;52.108;5.044;2023-04-29T17:26:24;7.90;;;2.95;;
48911;SDS011;34722;52.108;5.044;2023-04-29T17:28:50;4.65;;;2.70;;
48911;SDS011;34722;52.108;5.044;2023-04-29T17:31:16;8.25;;;3.00;;
48911;SDS011;34722;52.108;5.044;2023-04-29T17:33:44;5.35;;;3.42;;
48911;SDS011;34722;52.108;5.044;2023-04-29T17:36:21;4.68;;;2.78;;
48911;SDS011;34722;52.108;5.044;2023-04-29T17:38:49;6.63;;;2.90;;
48911;SDS011;34722;52.108;5.044;2023-04-29T17:41:15;6.65;;;3.00;;
48911;SDS011;34722;52.108;5.044;2023-04-29T17:43:44;7.93;;;3.65;;
48911;SDS011;34722;52.108;5.044;2023-04-29T17:46:11;4.85;;;3.55;;
48911;SDS011;34722;52.108;5.044;2023-04-29T17:48:37;7.80;;;3.80;;
48911;SDS011;34722;52.108;5.044;2023-04-29T17:51:02;5.13;;;4.03;;
48911;SDS011;34722;52.108;5.044;2023-04-29T17:53:28;7.97;;;4.18;;
48911;SDS011;34722;52.108;5.044;2023-04-29T17:55:57;5.85;;;4.78;;
48911;SDS011;34722;52.108;5.044;2023-04-29T17:58:23;9.23;;;4.53;;
48911;SDS011;34722;52.108;5.044;2023-04-29T18:00:48;7.40;;;5.60;;
48911;SDS011;34722;52.108;5.044;2023-04-29T18:03:14;9.68;;;5.80;;
48911;SDS011;34722;52.108;5.044;2023-04-29T18:05:40;9.63;;;5.50;;
48911;SDS011;34722;52.108;5.044;2023-04-29T18:08:06;8.00;;;5.80;;
48911;SDS011;34722;52.108;5.044;2023-04-29T18:10:35;8.65;;;5.25;;
48911;SDS011;34722;52.108;5.044;2023-04-29T18:13:00;10.20;;;5.25;;
48911;SDS011;34722;52.108;5.044;2023-04-29T18:15:27;7.43;;;4.82;;
48911;SDS011;34722;52.108;5.044;2023-04-29T18:17:54;9.80;;;4.90;;
48911;SDS011;34722;52.108;5.044;2023-04-29T18:20:19;12.65;;;6.05;;
48911;SDS011;34722;52.108;5.044;2023-04-29T18:22:46;13.50;;;4.72;;
48911;SDS011;34722;52.108;5.044;2023-04-29T18:25:11;9.68;;;5.88;;
48911;SDS011;34722;52.108;5.044;2023-04-29T18:27:37;9.35;;;5.15;;
48911;SDS011;34722;52.108;5.044;2023-04-29T18:30:03;10.27;;;4.70;;
48911;SDS011;34722;52.108;5.044;2023-04-29T18:32:29;6.72;;;4.43;;
48911;SDS011;34722;52.108;5.044;2023-04-29T18:34:55;10.90;;;5.10;;
48911;SDS011;34722;52.108;5.044;2023-04-29T18:37:21;5.55;;;4.25;;
48911;SDS011;34722;52.108;5.044;2023-04-29T18:39:47;9.95;;;4.57;;
48911;SDS011;34722;52.108;5.044;2023-04-29T18:42:12;8.60;;;4.68;;
48911;SDS011;34722;52.108;5.044;2023-04-29T18:44:38;5.20;;;4.00;;
48911;SDS011;34722;52.108;5.044;2023-04-29T18:47:04;9.90;;;4.47;;
48911;SDS011;34722;52.108;5.044;2023-04-29T18:49:29;9.73;;;4.30;;
48911;SDS011;34722;52.108;5.044;2023-04-29T18:51:55;8.95;;;4.30;;
48911;SDS011;34722;52.108;5.044;2023-04-29T18:54:21;10.82;;;4.25;;
48911;SDS011;34722;52.108;5.044;2023-04-29T18:56:47;5.95;;;3.92;;
48911;SDS011;34722;52.108;5.044;2023-04-29T18:59:14;13.80;;;4.63;;
48911;SDS011;34722;52.108;5.044;2023-04-29T19:01:46;7.35;;;4.18;;
48911;SDS011;34722;52.108;5.044;2023-04-29T19:04:12;8.20;;;4.45;;
48911;SDS011;34722;52.108;5.044;2023-04-29T19:06:45;8.98;;;4.40;;
48911;SDS011;34722;52.108;5.044;2023-04-29T19:09:10;13.98;;;4.65;;
48911;SDS011;34722;52.108;5.044;2023-04-29T19:11:40;9.15;;;5.03;;
48911;SDS011;34722;52.108;5.044;2023-04-29T19:14:09;7.90;;;4.80;;
48911;SDS011;34722;52.108;5.044;2023-04-29T19:16:44;8.27;;;4.95;;
48911;SDS011;34722;52.108;5.044;2023-04-29T19:19:10;8.68;;;5.00;;
48911;SDS011;34722;52.108;5.044;2023-04-29T19:21:36;8.07;;;4.55;;
48911;SDS011;34722;52.108;5.044;2023-04-29T19:27:04;8.90;;;4.40;;
48911;SDS011;34722;52.108;5.044;2023-04-29T20:42:06;21.48;;;10.00;;
48911;SDS011;34722;52.108;5.044;2023-04-29T20:44:39;15.57;;;7.10;;
48911;SDS011;34722;52.108;5.044;2023-04-29T20:47:09;14.40;;;6.75;;
48911;SDS011;34722;52.108;5.044;2023-04-29T20:49:37;15.15;;;7.47;;
48911;SDS011;34722;52.108;5.044;2023-04-29T20:55:02;13.55;;;7.40;;
48911;SDS011;34722;52.108;5.044;2023-04-29T20:57:43;14.00;;;7.90;;
48911;SDS011;34722;52.108;5.044;2023-04-29T21:00:19;19.30;;;8.60;;
48911;SDS011;34722;52.108;5.044;2023-04-29T21:03:48;10.32;;;6.95;;
48911;SDS011;34722;52.108;5.044;2023-04-29T21:09:05;13.05;;;6.80;;
48911;SDS011;34722;52.108;5.044;2023-04-29T21:11:34;15.25;;;7.57;;
48911;SDS011;34722;52.108;5.044;2023-04-29T21:14:10;12.40;;;7.93;;
48911;SDS011;34722;52.108;5.044;2023-04-29T21:16:44;15.77;;;8.10;;
48911;SDS011;34722;52.108;5.044;2023-04-29T21:19:12;13.90;;;8.68;;
48911;SDS011;34722;52.108;5.044;2023-04-29T21:21:48;15.07;;;7.93;;
48911;SDS011;34722;52.108;5.044;2023-04-29T21:24:20;15.32;;;8.23;;
48911;SDS011;34722;52.108;5.044;2023-04-29T21:27:41;17.52;;;7.47;;
48911;SDS011;34722;52.108;5.044;2023-04-29T21:30:17;12.05;;;7.35;;
48911;SDS011;34722;52.108;5.044;2023-04-29T21:32:43;12.60;;;7.85;;
48911;SDS011;34722;52.108;5.044;2023-04-29T21:38:29;13.02;;;8.32;;
48911;SDS011;34722;52.108;5.044;2023-04-29T21:43:59;14.10;;;8.15;;
48911;SDS011;34722;52.108;5.044;2023-04-29T21:46:36;14.60;;;8.90;;
48911;SDS011;34722;52.108;5.044;2023-04-29T21:49:10;20.10;;;10.02;;
48911;SDS011;34722;52.108;5.044;2023-04-29T21:51:36;15.38;;;8.90;;
48911;SDS011;34722;52.108;5.044;2023-04-29T21:54:02;16.80;;;9.10;;
48911;SDS011;34722;52.108;5.044;2023-04-29T21:56:32;15.63;;;9.32;;
48911;SDS011;34722;52.108;5.044;2023-04-29T21:58:58;14.93;;;8.55;;
48911;SDS011;34722;52.108;5.044;2023-04-29T22:01:24;15.15;;;9.05;;
48911;SDS011;34722;52.108;5.044;2023-04-29T22:03:54;16.88;;;9.85;;
48911;SDS011;34722;52.108;5.044;2023-04-29T22:06:21;19.35;;;9.32;;